sensor_id;sensor_type;location;lat;lon;timestamp;P1;durP1;ratioP1;P2;durP2;ratioP2
69917;SDS011;57203;42.672;23.334;2022-11-10T00:00:37;47.4;;;24.1;;
69917;SDS011;57203;42.672;23.334;2022-11-10T00:01:37;49.6;;;24.4;;
69917;SDS011;57203;42.672;23.334;2022-11-10T00:02:37;51.5;;;26.1;;
69917;SDS011;57203;42.672;23.334;2022-11-10T00:03:38;52.3;;;27.1;;
69917;SDS011;57203;42.672;23.334;2022-11-10T00:04:38;52.3;;;28.4;;
69917;SDS011;57203;42.672;23.334;2022-11-10T00:05:38;51.2;;;27.1;;
69917;SDS011;57203;42.672;23.334;2022-11-10T00:06:38;50.9;;;26.6;;
69917;SDS011;57203;42.672;23.334;2022-11-10T00:07:38;49.6;;;27.0;;
69917;SDS011;57203;42.672;23.334;2022-11-10T00:08:39;47.9;;;25.7;;
69917;SDS011;57203;42.672;23.334;2022-11-10T00:09:39;47.9;;;25.9;;
69917;SDS011;57203;42.672;23.334;2022-11-10T00:10:39;46.7;;;26.8;;
69917;SDS011;57203;42.672;23.334;2022-11-10T00:11:39;51.6;;;28.2;;
69917;SDS011;57203;42.672;23.334;2022-11-10T00:12:39;51.9;;;28.9;;
69917;SDS011;57203;42.672;23.334;2022-11-10T00:13:39;52.7;;;29.0;;
69917;SDS011;57203;42.672;23.334;2022-11-10T00:14:39;54.6;;;28.5;;
69917;SDS011;57203;42.672;23.334;2022-11-10T00:15:40;54.6;;;28.2;;
69917;SDS011;57203;42.672;23.334;2022-11-10T00:16:40;52.6;;;29.8;;
69917;SDS011;57203;42.672;23.334;2022-11-10T00:17:40;53.9;;;30.4;;
69917;SDS011;57203;42.672;23.334;2022-11-10T00:18:40;56.1;;;30.7;;
69917;SDS011;57203;42.672;23.334;2022-11-10T00:19:40;56.1;;;31.5;;
69917;SDS011;57203;42.672;23.334;2022-11-10T00:20:40;59.0;;;32.0;;
69917;SDS011;57203;42.672;23.334;2022-11-10T00:21:41;57.4;;;31.1;;
69917;SDS011;57203;42.672;23.334;2022-11-10T00:23:41;58.3;;;30.0;;
69917;SDS011;57203;42.672;23.334;2022-11-10T00:24:41;55.4;;;31.9;;
69917;SDS011;57203;42.672;23.334;2022-11-10T00:25:41;62.8;;;31.0;;
69917;SDS011;57203;42.672;23.334;2022-11-10T00:26:41;58.7;;;32.2;;
69917;SDS011;57203;42.672;23.334;2022-11-10T00:27:42;58.7;;;32.1;;
69917;SDS011;57203;42.672;23.334;2022-11-10T00:28:42;64.3;;;30.2;;
69917;SDS011;57203;42.672;23.334;2022-11-10T00:29:42;56.1;;;32.1;;
69917;SDS011;57203;42.672;23.334;2022-11-10T00:30:42;61.5;;;31.7;;
69917;SDS011;57203;42.672;23.334;2022-11-10T00:31:42;58.8;;;30.5;;
69917;SDS011;57203;42.672;23.334;2022-11-10T00:32:42;59.2;;;31.7;;
69917;SDS011;57203;42.672;23.334;2022-11-10T00:33:43;59.2;;;30.3;;
69917;SDS011;57203;42.672;23.334;2022-11-10T00:34:43;56.3;;;32.2;;
69917;SDS011;57203;42.672;23.334;2022-11-10T00:35:43;61.4;;;28.2;;
69917;SDS011;57203;42.672;23.334;2022-11-10T00:36:43;57.4;;;30.2;;
69917;SDS011;57203;42.672;23.334;2022-11-10T00:37:43;57.4;;;29.9;;
69917;SDS011;57203;42.672;23.334;2022-11-10T00:38:43;53.5;;;30.4;;
69917;SDS011;57203;42.672;23.334;2022-11-10T00:39:44;57.1;;;29.1;;
69917;SDS011;57203;42.672;23.334;2022-11-10T00:40:44;57.1;;;30.8;;
69917;SDS011;57203;42.672;23.334;2022-11-10T00:41:44;60.3;;;30.5;;
69917;SDS011;57203;42.672;23.334;2022-11-10T00:42:44;52.8;;;29.8;;
69917;SDS011;57203;42.672;23.334;2022-11-10T00:43:45;52.8;;;31.2;;
69917;SDS011;57203;42.672;23.334;2022-11-10T00:44:45;57.7;;;28.7;;
69917;SDS011;57203;42.672;23.334;2022-11-10T00:45:45;52.5;;;29.3;;
69917;SDS011;57203;42.672;23.334;2022-11-10T00:47:45;56.9;;;28.5;;
69917;SDS011;57203;42.672;23.334;2022-11-10T00:48:45;51.6;;;28.3;;
69917;SDS011;57203;42.672;23.334;2022-11-10T00:49:46;55.3;;;29.0;;
69917;SDS011;57203;42.672;23.334;2022-11-10T00:50:46;54.8;;;29.2;;
69917;SDS011;57203;42.672;23.334;2022-11-10T00:52:46;54.9;;;30.2;;
69917;SDS011;57203;42.672;23.334;2022-11-10T00:53:46;57.5;;;29.1;;
69917;SDS011;57203;42.672;23.334;2022-11-10T00:54:46;52.3;;;30.6;;
69917;SDS011;57203;42.672;23.334;2022-11-10T00:55:47;54.4;;;30.2;;
69917;SDS011;57203;42.672;23.334;2022-11-10T00:56:47;57.2;;;30.8;;
69917;SDS011;57203;42.672;23.334;2022-11-10T00:57:47;54.7;;;29.3;;
69917;SDS011;57203;42.672;23.334;2022-11-10T00:58:47;54.7;;;29.9;;
69917;SDS011;57203;42.672;23.334;2022-11-10T00:59:47;53.8;;;29.6;;
69917;SDS011;57203;42.672;23.334;2022-11-10T01:00:47;54.4;;;28.8;;
69917;SDS011;57203;42.672;23.334;2022-11-10T01:01:48;56.6;;;30.8;;
69917;SDS011;57203;42.672;23.334;2022-11-10T01:02:48;53.7;;;29.6;;
69917;SDS011;57203;42.672;23.334;2022-11-10T01:03:48;56.7;;;30.9;;
69917;SDS011;57203;42.672;23.334;2022-11-10T01:04:48;58.2;;;29.3;;
69917;SDS011;57203;42.672;23.334;2022-11-10T01:05:48;54.5;;;30.0;;
69917;SDS011;57203;42.672;23.334;2022-11-10T01:06:48;54.5;;;29.4;;
69917;SDS011;57203;42.672;23.334;2022-11-10T01:07:49;55.7;;;29.8;;
69917;SDS011;57203;42.672;23.334;2022-11-10T01:08:49;58.8;;;29.1;;
69917;SDS011;57203;42.672;23.334;2022-11-10T01:09:49;51.7;;;31.0;;
69917;SDS011;57203;42.672;23.334;2022-11-10T01:10:49;57.0;;;29.5;;
69917;SDS011;57203;42.672;23.334;2022-11-10T01:11:49;53.4;;;30.5;;
69917;SDS011;57203;42.672;23.334;2022-11-10T01:12:50;53.9;;;29.0;;
69917;SDS011;57203;42.672;23.334;2022-11-10T01:13:50;54.2;;;30.8;;
69917;SDS011;57203;42.672;23.334;2022-11-10T01:15:50;56.9;;;30.1;;
69917;SDS011;57203;42.672;23.334;2022-11-10T01:16:50;56.4;;;30.0;;
69917;SDS011;57203;42.672;23.334;2022-11-10T01:17:51;56.4;;;30.2;;
69917;SDS011;57203;42.672;23.334;2022-11-10T01:18:51;59.3;;;29.9;;
69917;SDS011;57203;42.672;23.334;2022-11-10T01:19:51;55.6;;;29.7;;
69917;SDS011;57203;42.672;23.334;2022-11-10T01:20:51;56.1;;;29.8;;
69917;SDS011;57203;42.672;23.334;2022-11-10T01:21:51;54.1;;;29.1;;
69917;SDS011;57203;42.672;23.334;2022-11-10T01:22:51;56.8;;;29.2;;
69917;SDS011;57203;42.672;23.334;2022-11-10T01:23:51;51.7;;;28.6;;
69917;SDS011;57203;42.672;23.334;2022-11-10T01:24:52;52.2;;;28.4;;
69917;SDS011;57203;42.672;23.334;2022-11-10T01:25:55;53.5;;;29.2;;
69917;SDS011;57203;42.672;23.334;2022-11-10T01:26:52;55.4;;;28.3;;
69917;SDS011;57203;42.672;23.334;2022-11-10T01:27:52;51.8;;;29.2;;
69917;SDS011;57203;42.672;23.334;2022-11-10T01:28:52;55.5;;;28.4;;
69917;SDS011;57203;42.672;23.334;2022-11-10T01:29:52;54.2;;;30.3;;
69917;SDS011;57203;42.672;23.334;2022-11-10T01:30:55;50.8;;;28.1;;
69917;SDS011;57203;42.672;23.334;2022-11-10T01:31:53;50.8;;;29.7;;
69917;SDS011;57203;42.672;23.334;2022-11-10T01:32:53;55.4;;;29.6;;
69917;SDS011;57203;42.672;23.334;2022-11-10T01:33:53;57.3;;;29.5;;
69917;SDS011;57203;42.672;23.334;2022-11-10T01:34:53;57.3;;;29.8;;
69917;SDS011;57203;42.672;23.334;2022-11-10T01:35:53;53.0;;;29.2;;
69917;SDS011;57203;42.672;23.334;2022-11-10T01:36:54;53.0;;;28.8;;
69917;SDS011;57203;42.672;23.334;2022-11-10T01:37:54;53.6;;;28.4;;
69917;SDS011;57203;42.672;23.334;2022-11-10T01:38:54;53.6;;;28.6;;
69917;SDS011;57203;42.672;23.334;2022-11-10T01:39:54;52.8;;;29.1;;
69917;SDS011;57203;42.672;23.334;2022-11-10T01:40:54;53.9;;;29.6;;
69917;SDS011;57203;42.672;23.334;2022-11-10T01:41:54;52.2;;;28.8;;
69917;SDS011;57203;42.672;23.334;2022-11-10T01:42:55;53.1;;;27.6;;
69917;SDS011;57203;42.672;23.334;2022-11-10T01:46:01;49.7;;;27.9;;
69917;SDS011;57203;42.672;23.334;2022-11-10T01:46:55;50.7;;;27.2;;
69917;SDS011;57203;42.672;23.334;2022-11-10T01:48:56;50.8;;;27.6;;
69917;SDS011;57203;42.672;23.334;2022-11-10T01:49:56;51.1;;;28.1;;
69917;SDS011;57203;42.672;23.334;2022-11-10T01:50:56;53.3;;;28.5;;
69917;SDS011;57203;42.672;23.334;2022-11-10T01:51:57;52.7;;;28.6;;
69917;SDS011;57203;42.672;23.334;2022-11-10T01:52:58;53.6;;;29.3;;
69917;SDS011;57203;42.672;23.334;2022-11-10T01:53:57;52.9;;;28.1;;
69917;SDS011;57203;42.672;23.334;2022-11-10T01:54:57;52.9;;;27.5;;
69917;SDS011;57203;42.672;23.334;2022-11-10T01:55:57;47.5;;;27.2;;
69917;SDS011;57203;42.672;23.334;2022-11-10T01:56:58;55.0;;;28.7;;
69917;SDS011;57203;42.672;23.334;2022-11-10T01:57:57;55.0;;;27.9;;
69917;SDS011;57203;42.672;23.334;2022-11-10T01:58:58;52.9;;;27.2;;
69917;SDS011;57203;42.672;23.334;2022-11-10T01:59:58;49.8;;;27.7;;
69917;SDS011;57203;42.672;23.334;2022-11-10T02:00:58;50.9;;;28.2;;
69917;SDS011;57203;42.672;23.334;2022-11-10T02:02:00;47.4;;;27.5;;
69917;SDS011;57203;42.672;23.334;2022-11-10T02:03:00;48.1;;;26.3;;
69917;SDS011;57203;42.672;23.334;2022-11-10T02:03:59;48.4;;;26.9;;
69917;SDS011;57203;42.672;23.334;2022-11-10T02:04:58;49.6;;;28.5;;
69917;SDS011;57203;42.672;23.334;2022-11-10T02:05:58;52.8;;;27.9;;
69917;SDS011;57203;42.672;23.334;2022-11-10T02:06:59;52.8;;;27.1;;
69917;SDS011;57203;42.672;23.334;2022-11-10T02:07:59;49.0;;;27.0;;
69917;SDS011;57203;42.672;23.334;2022-11-10T02:10:00;48.9;;;27.4;;
69917;SDS011;57203;42.672;23.334;2022-11-10T02:10:59;48.9;;;27.3;;
69917;SDS011;57203;42.672;23.334;2022-11-10T02:12:00;49.5;;;28.7;;
69917;SDS011;57203;42.672;23.334;2022-11-10T02:13:00;47.9;;;26.6;;
69917;SDS011;57203;42.672;23.334;2022-11-10T02:14:00;47.9;;;26.0;;
69917;SDS011;57203;42.672;23.334;2022-11-10T02:15:00;50.5;;;26.1;;
69917;SDS011;57203;42.672;23.334;2022-11-10T02:16:00;50.6;;;26.6;;
69917;SDS011;57203;42.672;23.334;2022-11-10T02:17:01;51.5;;;28.0;;
69917;SDS011;57203;42.672;23.334;2022-11-10T02:18:01;51.5;;;27.2;;
69917;SDS011;57203;42.672;23.334;2022-11-10T02:19:10;48.7;;;27.4;;
69917;SDS011;57203;42.672;23.334;2022-11-10T02:21:02;53.3;;;25.8;;
69917;SDS011;57203;42.672;23.334;2022-11-10T02:22:01;45.9;;;26.6;;
69917;SDS011;57203;42.672;23.334;2022-11-10T02:23:10;50.1;;;25.3;;
69917;SDS011;57203;42.672;23.334;2022-11-10T02:24:02;45.9;;;28.0;;
69917;SDS011;57203;42.672;23.334;2022-11-10T02:25:02;52.4;;;26.1;;
69917;SDS011;57203;42.672;23.334;2022-11-10T02:26:03;47.3;;;25.2;;
69917;SDS011;57203;42.672;23.334;2022-11-10T02:27:02;47.3;;;25.8;;
69917;SDS011;57203;42.672;23.334;2022-11-10T02:28:03;47.1;;;24.7;;
69917;SDS011;57203;42.672;23.334;2022-11-10T02:29:03;45.9;;;23.6;;
69917;SDS011;57203;42.672;23.334;2022-11-10T02:30:03;43.9;;;23.7;;
69917;SDS011;57203;42.672;23.334;2022-11-10T02:31:03;43.6;;;24.8;;
69917;SDS011;57203;42.672;23.334;2022-11-10T02:32:03;45.7;;;24.7;;
69917;SDS011;57203;42.672;23.334;2022-11-10T02:33:03;45.5;;;22.7;;
69917;SDS011;57203;42.672;23.334;2022-11-10T02:34:04;39.2;;;23.9;;
69917;SDS011;57203;42.672;23.334;2022-11-10T02:35:04;46.6;;;22.7;;
69917;SDS011;57203;42.672;23.334;2022-11-10T02:36:04;41.5;;;23.1;;
69917;SDS011;57203;42.672;23.334;2022-11-10T02:37:04;41.9;;;21.6;;
69917;SDS011;57203;42.672;23.334;2022-11-10T02:38:04;40.3;;;21.8;;
69917;SDS011;57203;42.672;23.334;2022-11-10T02:39:04;38.6;;;21.7;;
69917;SDS011;57203;42.672;23.334;2022-11-10T02:40:05;37.3;;;21.0;;
69917;SDS011;57203;42.672;23.334;2022-11-10T02:41:05;37.3;;;21.6;;
69917;SDS011;57203;42.672;23.334;2022-11-10T02:42:05;39.5;;;23.0;;
69917;SDS011;57203;42.672;23.334;2022-11-10T02:43:06;42.3;;;22.5;;
69917;SDS011;57203;42.672;23.334;2022-11-10T02:44:05;38.2;;;21.3;;
69917;SDS011;57203;42.672;23.334;2022-11-10T02:45:06;39.4;;;21.6;;
69917;SDS011;57203;42.672;23.334;2022-11-10T02:46:06;39.4;;;20.4;;
69917;SDS011;57203;42.672;23.334;2022-11-10T02:47:06;38.6;;;20.9;;
69917;SDS011;57203;42.672;23.334;2022-11-10T02:48:06;41.0;;;20.5;;
69917;SDS011;57203;42.672;23.334;2022-11-10T02:49:06;35.0;;;19.9;;
69917;SDS011;57203;42.672;23.334;2022-11-10T02:50:06;36.6;;;21.2;;
69917;SDS011;57203;42.672;23.334;2022-11-10T02:51:06;37.3;;;20.5;;
69917;SDS011;57203;42.672;23.334;2022-11-10T02:52:07;36.1;;;21.2;;
69917;SDS011;57203;42.672;23.334;2022-11-10T02:53:07;36.9;;;20.7;;
69917;SDS011;57203;42.672;23.334;2022-11-10T02:54:07;36.8;;;20.9;;
69917;SDS011;57203;42.672;23.334;2022-11-10T02:55:07;36.8;;;21.1;;
69917;SDS011;57203;42.672;23.334;2022-11-10T02:56:07;36.5;;;20.8;;
69917;SDS011;57203;42.672;23.334;2022-11-10T02:57:07;35.2;;;19.4;;
69917;SDS011;57203;42.672;23.334;2022-11-10T02:58:08;35.2;;;20.6;;
69917;SDS011;57203;42.672;23.334;2022-11-10T02:59:08;38.0;;;21.8;;
69917;SDS011;57203;42.672;23.334;2022-11-10T03:00:09;42.5;;;20.1;;
69917;SDS011;57203;42.672;23.334;2022-11-10T03:01:08;37.5;;;21.0;;
69917;SDS011;57203;42.672;23.334;2022-11-10T03:02:08;35.8;;;19.8;;
69917;SDS011;57203;42.672;23.334;2022-11-10T03:03:09;35.8;;;21.1;;
69917;SDS011;57203;42.672;23.334;2022-11-10T03:04:09;38.2;;;20.3;;
69917;SDS011;57203;42.672;23.334;2022-11-10T03:05:09;39.4;;;20.0;;
69917;SDS011;57203;42.672;23.334;2022-11-10T03:06:09;37.0;;;20.8;;
69917;SDS011;57203;42.672;23.334;2022-11-10T03:08:09;39.0;;;19.8;;
69917;SDS011;57203;42.672;23.334;2022-11-10T03:10:10;35.1;;;21.6;;
69917;SDS011;57203;42.672;23.334;2022-11-10T03:11:10;36.2;;;20.8;;
69917;SDS011;57203;42.672;23.334;2022-11-10T03:12:10;36.2;;;20.5;;
69917;SDS011;57203;42.672;23.334;2022-11-10T03:13:10;37.0;;;19.5;;
69917;SDS011;57203;42.672;23.334;2022-11-10T03:14:10;34.8;;;20.4;;
69917;SDS011;57203;42.672;23.334;2022-11-10T03:15:11;35.8;;;19.7;;
69917;SDS011;57203;42.672;23.334;2022-11-10T03:16:11;37.6;;;20.0;;
69917;SDS011;57203;42.672;23.334;2022-11-10T03:17:11;34.7;;;19.6;;
69917;SDS011;57203;42.672;23.334;2022-11-10T03:18:11;34.7;;;20.6;;
69917;SDS011;57203;42.672;23.334;2022-11-10T03:19:11;39.0;;;20.8;;
69917;SDS011;57203;42.672;23.334;2022-11-10T03:20:11;38.5;;;22.1;;
69917;SDS011;57203;42.672;23.334;2022-11-10T03:21:11;43.1;;;22.5;;
69917;SDS011;57203;42.672;23.334;2022-11-10T03:22:12;40.2;;;23.6;;
69917;SDS011;57203;42.672;23.334;2022-11-10T03:23:12;44.3;;;23.0;;
69917;SDS011;57203;42.672;23.334;2022-11-10T03:24:12;44.8;;;24.4;;
69917;SDS011;57203;42.672;23.334;2022-11-10T03:25:12;42.9;;;23.1;;
69917;SDS011;57203;42.672;23.334;2022-11-10T03:26:12;42.9;;;23.5;;
69917;SDS011;57203;42.672;23.334;2022-11-10T03:27:13;42.5;;;24.2;;
69917;SDS011;57203;42.672;23.334;2022-11-10T03:28:13;46.8;;;23.3;;
69917;SDS011;57203;42.672;23.334;2022-11-10T03:29:13;42.1;;;22.9;;
69917;SDS011;57203;42.672;23.334;2022-11-10T03:30:13;42.6;;;23.0;;
69917;SDS011;57203;42.672;23.334;2022-11-10T03:31:13;40.3;;;24.5;;
69917;SDS011;57203;42.672;23.334;2022-11-10T03:32:13;46.0;;;23.6;;
69917;SDS011;57203;42.672;23.334;2022-11-10T03:33:14;44.9;;;23.3;;
69917;SDS011;57203;42.672;23.334;2022-11-10T03:34:14;41.9;;;21.1;;
69917;SDS011;57203;42.672;23.334;2022-11-10T03:35:14;40.2;;;22.4;;
69917;SDS011;57203;42.672;23.334;2022-11-10T03:36:14;39.6;;;23.0;;
69917;SDS011;57203;42.672;23.334;2022-11-10T03:37:14;41.6;;;23.5;;
69917;SDS011;57203;42.672;23.334;2022-11-10T03:38:14;41.3;;;23.0;;
69917;SDS011;57203;42.672;23.334;2022-11-10T03:39:15;42.1;;;21.1;;
69917;SDS011;57203;42.672;23.334;2022-11-10T03:40:15;39.9;;;21.3;;
69917;SDS011;57203;42.672;23.334;2022-11-10T03:41:15;36.9;;;22.8;;
69917;SDS011;57203;42.672;23.334;2022-11-10T03:42:15;42.9;;;23.6;;
69917;SDS011;57203;42.672;23.334;2022-11-10T03:43:15;41.8;;;22.4;;
69917;SDS011;57203;42.672;23.334;2022-11-10T03:44:15;41.8;;;23.0;;
69917;SDS011;57203;42.672;23.334;2022-11-10T03:45:16;43.8;;;22.3;;
69917;SDS011;57203;42.672;23.334;2022-11-10T03:46:16;38.5;;;21.8;;
69917;SDS011;57203;42.672;23.334;2022-11-10T03:47:16;37.6;;;23.0;;
69917;SDS011;57203;42.672;23.334;2022-11-10T03:48:16;40.5;;;22.0;;
69917;SDS011;57203;42.672;23.334;2022-11-10T03:49:16;40.5;;;22.4;;
69917;SDS011;57203;42.672;23.334;2022-11-10T03:50:16;43.3;;;20.8;;
69917;SDS011;57203;42.672;23.334;2022-11-10T03:51:17;37.6;;;21.8;;
69917;SDS011;57203;42.672;23.334;2022-11-10T03:52:17;38.0;;;21.4;;
69917;SDS011;57203;42.672;23.334;2022-11-10T03:53:17;38.6;;;21.6;;
69917;SDS011;57203;42.672;23.334;2022-11-10T03:54:17;38.6;;;22.3;;
69917;SDS011;57203;42.672;23.334;2022-11-10T03:55:17;40.7;;;23.0;;
69917;SDS011;57203;42.672;23.334;2022-11-10T03:56:18;42.1;;;22.5;;
69917;SDS011;57203;42.672;23.334;2022-11-10T03:57:18;42.1;;;22.8;;
69917;SDS011;57203;42.672;23.334;2022-11-10T03:58:18;40.6;;;21.8;;
69917;SDS011;57203;42.672;23.334;2022-11-10T03:59:18;39.1;;;21.3;;
69917;SDS011;57203;42.672;23.334;2022-11-10T04:00:18;39.1;;;21.8;;
69917;SDS011;57203;42.672;23.334;2022-11-10T04:01:18;37.4;;;22.5;;
69917;SDS011;57203;42.672;23.334;2022-11-10T04:02:19;40.6;;;21.2;;
69917;SDS011;57203;42.672;23.334;2022-11-10T04:04:19;38.8;;;21.4;;
69917;SDS011;57203;42.672;23.334;2022-11-10T04:05:19;39.0;;;21.9;;
69917;SDS011;57203;42.672;23.334;2022-11-10T04:06:19;41.9;;;21.1;;
69917;SDS011;57203;42.672;23.334;2022-11-10T04:07:19;36.4;;;22.1;;
69917;SDS011;57203;42.672;23.334;2022-11-10T04:08:20;38.1;;;22.0;;
69917;SDS011;57203;42.672;23.334;2022-11-10T04:09:20;38.1;;;21.7;;
69917;SDS011;57203;42.672;23.334;2022-11-10T04:10:20;42.9;;;21.0;;
69917;SDS011;57203;42.672;23.334;2022-11-10T04:11:20;39.4;;;21.1;;
69917;SDS011;57203;42.672;23.334;2022-11-10T04:12:20;36.7;;;22.4;;
69917;SDS011;57203;42.672;23.334;2022-11-10T04:13:20;38.2;;;20.1;;
69917;SDS011;57203;42.672;23.334;2022-11-10T04:14:21;34.4;;;19.3;;
69917;SDS011;57203;42.672;23.334;2022-11-10T04:15:21;33.9;;;20.3;;
69917;SDS011;57203;42.672;23.334;2022-11-10T04:16:21;38.6;;;21.0;;
69917;SDS011;57203;42.672;23.334;2022-11-10T04:17:21;37.0;;;20.6;;
69917;SDS011;57203;42.672;23.334;2022-11-10T04:19:22;35.2;;;19.2;;
69917;SDS011;57203;42.672;23.334;2022-11-10T04:20:22;35.8;;;20.7;;
69917;SDS011;57203;42.672;23.334;2022-11-10T04:21:22;39.5;;;21.8;;
69917;SDS011;57203;42.672;23.334;2022-11-10T04:22:22;39.6;;;20.5;;
69917;SDS011;57203;42.672;23.334;2022-11-10T04:23:22;40.1;;;20.0;;
69917;SDS011;57203;42.672;23.334;2022-11-10T04:24:22;34.1;;;20.3;;
69917;SDS011;57203;42.672;23.334;2022-11-10T04:25:22;36.6;;;19.9;;
69917;SDS011;57203;42.672;23.334;2022-11-10T04:26:23;35.4;;;19.7;;
69917;SDS011;57203;42.672;23.334;2022-11-10T04:27:23;39.2;;;20.3;;
69917;SDS011;57203;42.672;23.334;2022-11-10T04:28:23;39.2;;;19.5;;
69917;SDS011;57203;42.672;23.334;2022-11-10T04:29:23;37.5;;;20.5;;
69917;SDS011;57203;42.672;23.334;2022-11-10T04:30:23;33.3;;;19.6;;
69917;SDS011;57203;42.672;23.334;2022-11-10T04:31:24;33.3;;;19.1;;
69917;SDS011;57203;42.672;23.334;2022-11-10T04:32:24;31.8;;;21.0;;
69917;SDS011;57203;42.672;23.334;2022-11-10T04:33:24;36.6;;;21.6;;
69917;SDS011;57203;42.672;23.334;2022-11-10T04:34:24;37.1;;;21.3;;
69917;SDS011;57203;42.672;23.334;2022-11-10T04:35:24;38.5;;;19.4;;
69917;SDS011;57203;42.672;23.334;2022-11-10T04:36:25;34.8;;;20.0;;
69917;SDS011;57203;42.672;23.334;2022-11-10T04:37:25;34.8;;;20.6;;
69917;SDS011;57203;42.672;23.334;2022-11-10T04:38:25;35.8;;;20.2;;
69917;SDS011;57203;42.672;23.334;2022-11-10T04:40:25;37.3;;;20.6;;
69917;SDS011;57203;42.672;23.334;2022-11-10T04:41:26;38.5;;;20.3;;
69917;SDS011;57203;42.672;23.334;2022-11-10T04:42:25;33.8;;;20.0;;
69917;SDS011;57203;42.672;23.334;2022-11-10T04:43:26;37.5;;;21.0;;
69917;SDS011;57203;42.672;23.334;2022-11-10T04:44:26;36.7;;;20.4;;
69917;SDS011;57203;42.672;23.334;2022-11-10T04:45:26;36.7;;;19.8;;
69917;SDS011;57203;42.672;23.334;2022-11-10T04:46:27;37.2;;;21.3;;
69917;SDS011;57203;42.672;23.334;2022-11-10T04:47:26;37.9;;;21.6;;
69917;SDS011;57203;42.672;23.334;2022-11-10T04:48:27;40.5;;;21.8;;
69917;SDS011;57203;42.672;23.334;2022-11-10T04:49:27;40.5;;;22.1;;
69917;SDS011;57203;42.672;23.334;2022-11-10T04:50:27;42.0;;;20.5;;
69917;SDS011;57203;42.672;23.334;2022-11-10T04:51:28;38.3;;;20.8;;
69917;SDS011;57203;42.672;23.334;2022-11-10T04:52:27;38.1;;;22.1;;
69917;SDS011;57203;42.672;23.334;2022-11-10T04:53:27;40.7;;;22.3;;
69917;SDS011;57203;42.672;23.334;2022-11-10T04:54:27;41.7;;;21.0;;
69917;SDS011;57203;42.672;23.334;2022-11-10T04:55:28;40.2;;;22.4;;
69917;SDS011;57203;42.672;23.334;2022-11-10T04:56:28;43.0;;;23.6;;
69917;SDS011;57203;42.672;23.334;2022-11-10T04:57:28;46.5;;;21.2;;
69917;SDS011;57203;42.672;23.334;2022-11-10T04:58:28;39.3;;;22.3;;
69917;SDS011;57203;42.672;23.334;2022-11-10T04:59:28;39.9;;;21.7;;
69917;SDS011;57203;42.672;23.334;2022-11-10T05:00:28;39.3;;;22.5;;
69917;SDS011;57203;42.672;23.334;2022-11-10T05:01:29;41.3;;;22.2;;
69917;SDS011;57203;42.672;23.334;2022-11-10T05:02:29;39.8;;;22.3;;
69917;SDS011;57203;42.672;23.334;2022-11-10T05:03:29;39.8;;;21.2;;
69917;SDS011;57203;42.672;23.334;2022-11-10T05:04:29;39.1;;;21.1;;
69917;SDS011;57203;42.672;23.334;2022-11-10T05:05:29;39.8;;;21.6;;
69917;SDS011;57203;42.672;23.334;2022-11-10T05:06:29;38.4;;;21.7;;
69917;SDS011;57203;42.672;23.334;2022-11-10T05:07:30;41.4;;;22.4;;
69917;SDS011;57203;42.672;23.334;2022-11-10T05:08:30;41.4;;;25.3;;
69917;SDS011;57203;42.672;23.334;2022-11-10T05:09:30;46.4;;;25.8;;
69917;SDS011;57203;42.672;23.334;2022-11-10T05:10:30;43.4;;;23.5;;
69917;SDS011;57203;42.672;23.334;2022-11-10T05:11:30;43.4;;;23.7;;
69917;SDS011;57203;42.672;23.334;2022-11-10T05:12:30;48.8;;;22.8;;
69917;SDS011;57203;42.672;23.334;2022-11-10T05:13:31;41.9;;;25.6;;
69917;SDS011;57203;42.672;23.334;2022-11-10T05:14:31;49.0;;;26.2;;
69917;SDS011;57203;42.672;23.334;2022-11-10T05:15:31;49.0;;;22.6;;
69917;SDS011;57203;42.672;23.334;2022-11-10T05:16:31;43.5;;;24.7;;
69917;SDS011;57203;42.672;23.334;2022-11-10T05:17:31;46.7;;;24.1;;
69917;SDS011;57203;42.672;23.334;2022-11-10T05:18:32;46.7;;;22.8;;
69917;SDS011;57203;42.672;23.334;2022-11-10T05:19:32;47.4;;;23.4;;
69917;SDS011;57203;42.672;23.334;2022-11-10T05:20:32;43.0;;;22.4;;
69917;SDS011;57203;42.672;23.334;2022-11-10T05:21:32;39.2;;;22.6;;
69917;SDS011;57203;42.672;23.334;2022-11-10T05:22:32;39.2;;;23.2;;
69917;SDS011;57203;42.672;23.334;2022-11-10T05:23:32;42.5;;;24.3;;
69917;SDS011;57203;42.672;23.334;2022-11-10T05:24:32;43.9;;;23.4;;
69917;SDS011;57203;42.672;23.334;2022-11-10T05:26:33;43.4;;;23.0;;
69917;SDS011;57203;42.672;23.334;2022-11-10T05:27:33;40.1;;;23.1;;
69917;SDS011;57203;42.672;23.334;2022-11-10T05:28:33;40.1;;;22.2;;
69917;SDS011;57203;42.672;23.334;2022-11-10T05:29:33;39.1;;;21.0;;
69917;SDS011;57203;42.672;23.334;2022-11-10T05:30:34;39.1;;;22.5;;
69917;SDS011;57203;42.672;23.334;2022-11-10T05:31:34;43.2;;;22.8;;
69917;SDS011;57203;42.672;23.334;2022-11-10T05:32:34;43.2;;;25.0;;
69917;SDS011;57203;42.672;23.334;2022-11-10T05:33:34;47.7;;;24.1;;
69917;SDS011;57203;42.672;23.334;2022-11-10T05:34:34;49.3;;;23.9;;
69917;SDS011;57203;42.672;23.334;2022-11-10T05:35:35;45.1;;;25.5;;
69917;SDS011;57203;42.672;23.334;2022-11-10T05:36:35;48.4;;;25.1;;
69917;SDS011;57203;42.672;23.334;2022-11-10T05:37:35;44.9;;;24.7;;
69917;SDS011;57203;42.672;23.334;2022-11-10T05:38:35;50.4;;;25.0;;
69917;SDS011;57203;42.672;23.334;2022-11-10T05:39:35;41.3;;;24.0;;
69917;SDS011;57203;42.672;23.334;2022-11-10T05:40:35;44.5;;;25.0;;
69917;SDS011;57203;42.672;23.334;2022-11-10T05:41:35;44.5;;;24.4;;
69917;SDS011;57203;42.672;23.334;2022-11-10T05:43:36;48.8;;;24.7;;
69917;SDS011;57203;42.672;23.334;2022-11-10T05:44:36;48.1;;;26.0;;
69917;SDS011;57203;42.672;23.334;2022-11-10T05:45:36;48.4;;;24.9;;
69917;SDS011;57203;42.672;23.334;2022-11-10T05:46:36;44.9;;;23.8;;
69917;SDS011;57203;42.672;23.334;2022-11-10T05:47:37;44.9;;;24.7;;
69917;SDS011;57203;42.672;23.334;2022-11-10T05:48:37;47.0;;;25.0;;
69917;SDS011;57203;42.672;23.334;2022-11-10T05:50:37;51.4;;;25.5;;
69917;SDS011;57203;42.672;23.334;2022-11-10T05:51:37;51.4;;;22.2;;
69917;SDS011;57203;42.672;23.334;2022-11-10T05:52:38;40.4;;;23.4;;
69917;SDS011;57203;42.672;23.334;2022-11-10T05:53:37;42.0;;;22.6;;
69917;SDS011;57203;42.672;23.334;2022-11-10T05:54:38;42.0;;;23.2;;
69917;SDS011;57203;42.672;23.334;2022-11-10T05:55:38;42.0;;;21.7;;
69917;SDS011;57203;42.672;23.334;2022-11-10T05:56:38;43.3;;;23.1;;
69917;SDS011;57203;42.672;23.334;2022-11-10T05:57:40;43.3;;;21.5;;
69917;SDS011;57203;42.672;23.334;2022-11-10T05:58:38;37.7;;;20.7;;
69917;SDS011;57203;42.672;23.334;2022-11-10T05:59:38;36.5;;;20.0;;
69917;SDS011;57203;42.672;23.334;2022-11-10T06:00:39;39.1;;;20.6;;
69917;SDS011;57203;42.672;23.334;2022-11-10T06:01:39;39.1;;;20.8;;
69917;SDS011;57203;42.672;23.334;2022-11-10T06:02:39;38.8;;;19.5;;
69917;SDS011;57203;42.672;23.334;2022-11-10T06:03:39;37.8;;;18.5;;
69917;SDS011;57203;42.672;23.334;2022-11-10T06:04:39;34.2;;;18.3;;
69917;SDS011;57203;42.672;23.334;2022-11-10T06:05:40;31.3;;;18.2;;
69917;SDS011;57203;42.672;23.334;2022-11-10T06:06:40;31.2;;;17.7;;
69917;SDS011;57203;42.672;23.334;2022-11-10T06:07:40;31.5;;;18.4;;
69917;SDS011;57203;42.672;23.334;2022-11-10T06:08:40;30.4;;;18.7;;
69917;SDS011;57203;42.672;23.334;2022-11-10T06:09:40;30.7;;;18.5;;
69917;SDS011;57203;42.672;23.334;2022-11-10T06:10:40;32.7;;;18.4;;
69917;SDS011;57203;42.672;23.334;2022-11-10T06:11:41;32.7;;;18.9;;
69917;SDS011;57203;42.672;23.334;2022-11-10T06:15:41;34.5;;;17.8;;
69917;SDS011;57203;42.672;23.334;2022-11-10T06:16:41;33.8;;;17.9;;